createdAt,value
2023-03-06T00:01:09.838Z,17.23
2023-03-06T00:03:57.628Z,17.20
2023-03-06T00:06:45.232Z,18.38
2023-03-06T00:09:32.521Z,19.75
2023-03-06T00:12:19.710Z,18.40
2023-03-06T00:15:07.696Z,17.77
2023-03-06T00:17:55.975Z,17.05
2023-03-06T00:20:44.191Z,17.92
2023-03-06T00:23:31.408Z,18.73
2023-03-06T00:26:18.796Z,18.05
2023-03-06T00:29:06.417Z,18.98
2023-03-06T00:31:53.816Z,18.60
2023-03-06T00:34:41.126Z,18.02
2023-03-06T00:37:28.335Z,17.67
2023-03-06T00:40:19.690Z,16.80
2023-03-06T00:43:06.874Z,18.25
2023-03-06T00:45:54.089Z,18.85
2023-03-06T00:48:41.323Z,16.33
2023-03-06T00:51:28.634Z,17.55
2023-03-06T00:54:15.816Z,17.13
2023-03-06T00:57:03.329Z,18.23
2023-03-06T00:59:50.805Z,17.92
2023-03-06T01:02:38.276Z,17.52
2023-03-06T01:05:25.843Z,17.50
2023-03-06T01:08:13.161Z,18.67
2023-03-06T01:11:00.462Z,18.52
2023-03-06T01:13:47.604Z,18.48
2023-03-06T01:16:34.882Z,17.58
2023-03-06T01:19:22.098Z,17.65
2023-03-06T01:22:09.412Z,17.10
2023-03-06T01:24:56.628Z,17.38
2023-03-06T01:27:43.907Z,18.02
2023-03-06T01:30:31.196Z,16.80
2023-03-06T01:33:18.606Z,18.55
2023-03-06T01:36:08.182Z,17.42
2023-03-06T01:38:55.346Z,16.92
2023-03-06T01:41:42.641Z,15.95
2023-03-06T01:44:30.233Z,16.05
2023-03-06T01:47:17.415Z,15.95
2023-03-06T01:50:08.673Z,15.00
2023-03-06T01:52:59.597Z,16.10
2023-03-06T01:55:46.924Z,15.27
2023-03-06T01:58:34.742Z,14.85
2023-03-06T02:01:22.156Z,15.82
2023-03-06T02:04:10.697Z,15.82
2023-03-06T02:07:01.168Z,15.02
2023-03-06T02:09:51.722Z,15.25
2023-03-06T02:12:43.760Z,14.63
2023-03-06T02:15:31.150Z,15.23
2023-03-06T02:18:18.452Z,15.20
2023-03-06T02:21:08.529Z,15.05
2023-03-06T02:24:19.692Z,15.07
2023-03-06T02:27:09.809Z,15.93
2023-03-06T02:29:58.281Z,15.02
2023-03-06T02:32:45.870Z,14.63
2023-03-06T02:35:38.531Z,14.93
2023-03-06T02:38:30.285Z,14.05
2023-03-06T02:41:17.875Z,14.88
2023-03-06T02:44:07.158Z,14.75
2023-03-06T02:46:55.504Z,14.27
2023-03-06T02:49:42.919Z,14.70
2023-03-06T02:52:30.450Z,13.68
2023-03-06T02:55:18.071Z,14.77
2023-03-06T02:58:05.714Z,14.75
2023-03-06T03:00:53.116Z,13.68
2023-03-06T03:03:42.650Z,12.93
2023-03-06T03:06:30.568Z,13.07
2023-03-06T03:09:18.352Z,13.15
2023-03-06T03:12:07.239Z,13.73
2023-03-06T03:14:57.710Z,13.40
2023-03-06T03:17:45.078Z,14.27
2023-03-06T03:20:32.355Z,13.82
2023-03-06T03:23:19.515Z,14.18
2023-03-06T03:26:13.080Z,13.68
2023-03-06T03:29:05.205Z,13.30
2023-03-06T03:31:52.623Z,13.20
2023-03-06T03:34:40.442Z,13.48
2023-03-06T03:37:27.775Z,12.05
2023-03-06T03:40:15.060Z,12.45
2023-03-06T03:43:02.358Z,16.15
2023-03-06T03:45:50.236Z,11.95
2023-03-06T03:48:37.836Z,12.55
2023-03-06T03:51:26.273Z,11.70
2023-03-06T03:54:17.115Z,12.20
2023-03-06T03:57:07.441Z,11.30
2023-03-06T03:59:58.878Z,12.82
2023-03-06T04:03:01.213Z,12.48
2023-03-06T04:05:58.205Z,11.45
2023-03-06T04:08:46.291Z,14.50
2023-03-06T04:11:33.862Z,12.55
2023-03-06T04:14:22.075Z,12.02
2023-03-06T04:17:09.258Z,11.85
2023-03-06T04:19:56.676Z,11.60
2023-03-06T04:22:44.140Z,11.18
2023-03-06T04:25:32.789Z,12.50
2023-03-06T04:28:22.559Z,12.20
2023-03-06T04:31:12.343Z,12.32
2023-03-06T04:34:00.709Z,11.30
2023-03-06T04:36:48.390Z,11.63
2023-03-06T04:39:37.606Z,11.32
2023-03-06T04:42:26.376Z,11.25
2023-03-06T04:45:14.236Z,11.15
2023-03-06T04:48:02.085Z,11.18
2023-03-06T04:50:49.293Z,11.20
2023-03-06T04:53:37.257Z,10.98
2023-03-06T04:56:25.721Z,10.57
2023-03-06T04:59:12.941Z,11.05
2023-03-06T05:02:00.203Z,41.38
2023-03-06T05:04:47.356Z,14.68
2023-03-06T05:07:34.802Z,10.73
2023-03-06T05:10:22.074Z,13.82
2023-03-06T05:13:09.581Z,10.57
2023-03-06T05:16:02.093Z,10.57
2023-03-06T05:18:50.696Z,10.18
2023-03-06T05:21:38.921Z,11.20
2023-03-06T05:24:26.386Z,11.05
2023-03-06T05:27:15.798Z,10.07
2023-03-06T05:30:04.541Z,9.43
2023-03-06T05:32:51.855Z,11.00
2023-03-06T05:35:39.082Z,10.80
2023-03-06T05:38:26.632Z,10.32
2023-03-06T05:41:14.088Z,999.90
2023-03-06T05:44:03.550Z,181.27
2023-03-06T05:46:50.957Z,999.90
2023-03-06T05:49:38.617Z,999.90
2023-03-06T05:52:25.865Z,999.90
2023-03-06T05:55:13.414Z,999.90
2023-03-06T05:58:00.620Z,999.90
2023-03-06T06:00:47.764Z,999.90
2023-03-06T06:03:34.955Z,999.90
2023-03-06T06:06:22.328Z,999.90
2023-03-06T06:09:11.684Z,999.90
2023-03-06T06:12:02.607Z,999.90
2023-03-06T06:14:49.774Z,554.15
2023-03-06T06:17:36.996Z,999.90
2023-03-06T06:20:25.222Z,999.90
2023-03-06T06:23:12.456Z,95.00
2023-03-06T06:26:01.559Z,5.80
2023-03-06T06:28:48.744Z,6.00
2023-03-06T06:31:38.924Z,6.97
2023-03-06T06:34:26.479Z,7.78
2023-03-06T06:37:13.700Z,7.22
2023-03-06T06:40:00.917Z,6.97
2023-03-06T06:42:48.084Z,6.50
2023-03-06T06:45:35.409Z,6.88
2023-03-06T06:48:22.765Z,6.68
2023-03-06T06:51:09.940Z,6.60
2023-03-06T06:53:58.523Z,7.18
2023-03-06T06:56:45.734Z,6.40
2023-03-06T06:59:32.864Z,6.55
2023-03-06T07:02:20.084Z,6.30
2023-03-06T07:05:08.093Z,6.70
2023-03-06T07:07:55.209Z,7.07
2023-03-06T07:10:42.714Z,5.70
2023-03-06T07:13:29.961Z,7.13
2023-03-06T07:16:17.594Z,6.45
2023-03-06T07:19:04.780Z,6.47
2023-03-06T07:21:51.949Z,6.22
2023-03-06T07:24:39.122Z,6.20
2023-03-06T07:27:26.549Z,6.22
2023-03-06T07:30:14.082Z,6.45
2023-03-06T07:33:03.776Z,5.80
2023-03-06T07:35:51.338Z,5.80
2023-03-06T07:38:38.558Z,4.93
2023-03-06T07:41:26.647Z,5.18
2023-03-06T07:44:14.016Z,5.30
2023-03-06T07:47:01.303Z,4.70
2023-03-06T07:49:48.745Z,5.25
2023-03-06T07:52:36.069Z,4.47
2023-03-06T07:55:23.390Z,4.45
2023-03-06T07:58:11.711Z,5.65
2023-03-06T08:01:03.612Z,5.35
2023-03-06T08:03:51.595Z,5.10
2023-03-06T08:06:38.814Z,4.43
2023-03-06T08:09:26.222Z,4.35
2023-03-06T08:12:15.141Z,5.63
2023-03-06T08:15:03.608Z,6.18
2023-03-06T08:17:51.215Z,5.47
2023-03-06T08:20:38.349Z,5.47
2023-03-06T08:23:25.500Z,5.72
2023-03-06T08:26:15.710Z,5.60
2023-03-06T08:29:04.528Z,5.40
2023-03-06T08:31:51.798Z,5.72
2023-03-06T08:34:41.089Z,7.07
2023-03-06T08:37:28.291Z,6.18
2023-03-06T08:40:15.611Z,6.38
2023-03-06T08:43:03.785Z,6.63
2023-03-06T08:45:54.941Z,6.45
2023-03-06T08:48:42.367Z,7.30
2023-03-06T08:51:29.857Z,6.40
2023-03-06T08:54:17.081Z,7.10
2023-03-06T08:57:04.309Z,6.97
2023-03-06T08:59:51.456Z,6.40
2023-03-06T09:02:38.896Z,6.35
2023-03-06T09:05:26.651Z,6.55
2023-03-06T09:08:13.834Z,8.30
2023-03-06T09:11:01.011Z,15.52
2023-03-06T09:13:48.405Z,8.93
2023-03-06T09:16:35.656Z,6.50
2023-03-06T09:19:23.189Z,7.15
2023-03-06T09:22:10.942Z,6.85
2023-03-06T09:24:58.348Z,6.72
2023-03-06T09:27:55.468Z,7.07
2023-03-06T09:30:50.128Z,6.32
2023-03-06T09:33:38.019Z,7.82
2023-03-06T09:36:25.221Z,6.57
2023-03-06T09:39:12.686Z,6.85
2023-03-06T09:41:59.934Z,7.13
2023-03-06T09:44:52.547Z,6.13
2023-03-06T09:47:55.479Z,7.03
2023-03-06T09:51:22.775Z,6.10
2023-03-06T09:54:14.856Z,7.50
2023-03-06T09:57:03.030Z,7.63
2023-03-06T09:59:57.491Z,7.40
2023-03-06T10:02:48.711Z,6.95
2023-03-06T10:08:46.758Z,6.45
2023-03-06T10:11:39.699Z,7.28
2023-03-06T10:14:35.190Z,6.60
2023-03-06T10:17:26.101Z,6.15
2023-03-06T10:20:24.252Z,7.00
2023-03-06T10:23:32.502Z,5.95
2023-03-06T10:26:26.602Z,6.65
2023-03-06T10:29:22.736Z,7.45
2023-03-06T10:32:20.850Z,8.65
2023-03-06T10:35:16.128Z,5.03
2023-03-06T10:38:29.959Z,6.28
2023-03-06T10:41:24.682Z,5.47
2023-03-06T10:44:11.803Z,6.22
2023-03-06T10:46:59.316Z,5.70
2023-03-06T10:49:57.634Z,5.97
2023-03-06T10:52:44.895Z,4.57
2023-03-06T10:55:37.008Z,5.88
2023-03-06T10:58:32.663Z,6.35
2023-03-06T11:01:22.397Z,6.22
2023-03-06T11:04:35.257Z,4.50
2023-03-06T11:07:28.246Z,5.68
2023-03-06T11:10:20.339Z,6.00
2023-03-06T11:13:29.073Z,5.97
2023-03-06T11:16:26.062Z,4.88
2023-03-06T11:19:30.230Z,4.95
2023-03-06T11:22:19.812Z,5.85
2023-03-06T11:25:13.366Z,6.25
2023-03-06T11:28:06.170Z,4.97
2023-03-06T11:31:20.074Z,6.93
2023-03-06T11:34:14.346Z,5.20
2023-03-06T11:37:07.169Z,6.20
2023-03-06T11:40:09.511Z,5.43
2023-03-06T11:43:14.573Z,6.45
2023-03-06T11:46:21.582Z,7.32
2023-03-06T11:49:34.996Z,9.38
2023-03-06T11:52:34.697Z,5.57
2023-03-06T11:55:56.158Z,7.05
2023-03-06T11:58:56.359Z,5.00
2023-03-06T12:02:02.048Z,5.07
2023-03-06T12:05:10.834Z,5.65
2023-03-06T12:08:07.078Z,6.13
2023-03-06T12:11:01.241Z,5.13
2023-03-06T12:14:20.551Z,6.07
2023-03-06T12:17:17.093Z,7.20
2023-03-06T12:20:40.126Z,5.40
2023-03-06T12:23:36.764Z,5.32
2023-03-06T12:26:38.930Z,6.40
2023-03-06T12:29:57.599Z,5.88
2023-03-06T12:33:22.250Z,5.05
2023-03-06T12:36:41.980Z,5.70
2023-03-06T12:39:47.797Z,7.20
2023-03-06T12:42:54.145Z,7.05
2023-03-06T12:45:44.261Z,6.63
2023-03-06T12:48:36.431Z,7.32
2023-03-06T12:51:24.597Z,6.68
2023-03-06T12:54:17.187Z,6.57
2023-03-06T12:57:08.449Z,7.00
2023-03-06T12:59:55.699Z,6.55
2023-03-06T13:02:54.043Z,8.73
2023-03-06T13:06:00.911Z,13.40
2023-03-06T13:09:03.185Z,9.30
2023-03-06T13:12:18.275Z,5.28
2023-03-06T13:15:36.747Z,7.85
2023-03-06T13:18:24.014Z,7.30
2023-03-06T13:22:00.304Z,7.50
2023-03-06T13:24:48.324Z,5.85
2023-03-06T13:27:54.968Z,5.95
2023-03-06T13:30:45.780Z,5.93
2023-03-06T13:33:34.357Z,5.13
2023-03-06T13:36:33.252Z,6.15
2023-03-06T13:39:20.387Z,5.43
2023-03-06T13:42:24.561Z,5.45
2023-03-06T13:45:38.729Z,4.88
2023-03-06T13:48:44.815Z,5.45
2023-03-06T13:51:39.078Z,6.15
2023-03-06T13:54:41.605Z,4.65
2023-03-06T13:57:59.430Z,5.07
2023-03-06T14:01:24.224Z,5.55
2023-03-06T14:04:36.181Z,5.80
2023-03-06T14:07:26.207Z,4.22
2023-03-06T14:10:13.387Z,6.35
2023-03-06T14:13:04.241Z,5.13
2023-03-06T14:15:54.278Z,6.20
2023-03-06T14:18:46.471Z,6.45
2023-03-06T14:21:47.708Z,5.00
2023-03-06T14:24:40.656Z,6.78
2023-03-06T14:27:39.635Z,5.80
2023-03-06T14:30:27.027Z,5.40
2023-03-06T14:33:39.466Z,6.60
2023-03-06T14:36:43.088Z,6.45
2023-03-06T14:39:44.117Z,5.65
2023-03-06T14:42:32.079Z,5.60
2023-03-06T14:45:19.737Z,5.00
2023-03-06T14:48:06.938Z,5.18
2023-03-06T14:50:56.099Z,5.70
2023-03-06T14:53:45.127Z,5.95
2023-03-06T14:56:36.139Z,5.68
2023-03-06T14:59:28.595Z,6.63
2023-03-06T15:02:23.437Z,6.40
2023-03-06T15:05:23.667Z,5.20
2023-03-06T15:08:16.635Z,5.55
2023-03-06T15:11:06.035Z,4.15
2023-03-06T15:14:03.861Z,4.40
2023-03-06T15:16:51.167Z,4.05
2023-03-06T15:19:40.808Z,4.60
2023-03-06T15:22:43.836Z,4.53
2023-03-06T15:25:31.502Z,5.97
2023-03-06T15:28:31.225Z,5.22
2023-03-06T15:31:28.122Z,5.15
2023-03-06T15:34:18.454Z,5.18
2023-03-06T15:37:25.886Z,5.30
2023-03-06T15:40:21.155Z,4.65
2023-03-06T15:43:10.643Z,5.90
2023-03-06T15:46:00.450Z,5.88
2023-03-06T15:49:00.294Z,5.18
2023-03-06T15:51:48.940Z,4.95
2023-03-06T15:54:36.816Z,4.10
2023-03-06T15:57:26.632Z,3.88
2023-03-06T16:00:27.368Z,4.25
2023-03-06T16:03:15.388Z,4.10
2023-03-06T16:06:02.622Z,5.18
2023-03-06T16:08:50.880Z,5.53
2023-03-06T16:11:44.311Z,4.30
2023-03-06T16:14:33.160Z,4.63
2023-03-06T16:17:20.814Z,4.55
2023-03-06T16:20:14.704Z,4.00
2023-03-06T16:23:07.980Z,4.28
2023-03-06T16:25:56.107Z,4.53
2023-03-06T16:28:44.604Z,4.38
2023-03-06T16:31:31.830Z,4.88
2023-03-06T16:34:21.987Z,4.82
2023-03-06T16:37:15.838Z,5.10
2023-03-06T16:40:07.210Z,4.72
2023-03-06T16:42:55.457Z,6.38
2023-03-06T16:45:43.528Z,5.32
2023-03-06T16:48:33.913Z,5.82
2023-03-06T16:51:23.204Z,5.00
2023-03-06T16:54:11.760Z,4.97
2023-03-06T16:57:04.931Z,4.05
2023-03-06T16:59:58.406Z,4.45
2023-03-06T17:02:49.147Z,5.90
2023-03-06T17:05:40.270Z,4.10
2023-03-06T17:08:27.906Z,4.82
2023-03-06T17:11:16.200Z,4.82
2023-03-06T17:14:03.723Z,5.13
2023-03-06T17:16:51.150Z,4.68
2023-03-06T17:19:38.571Z,4.93
2023-03-06T17:22:26.413Z,3.05
2023-03-06T17:25:13.682Z,2.10
2023-03-06T17:28:00.908Z,1.98
2023-03-06T17:30:48.278Z,2.20
2023-03-06T17:33:35.597Z,3.03
2023-03-06T17:36:23.109Z,2.40
2023-03-06T17:39:10.259Z,9.90
2023-03-06T17:41:57.524Z,45.08
2023-03-06T17:44:44.733Z,3.92
2023-03-06T17:47:31.896Z,1.67
2023-03-06T17:50:19.381Z,2.42
2023-03-06T17:53:06.520Z,2.03
2023-03-06T17:55:54.544Z,2.53
2023-03-06T17:58:41.802Z,2.50
2023-03-06T18:01:30.163Z,1.73
2023-03-06T18:04:17.386Z,2.60
2023-03-06T18:07:04.909Z,2.67
2023-03-06T18:09:52.289Z,1.98
2023-03-06T18:12:39.638Z,2.05
2023-03-06T18:15:27.105Z,2.92
2023-03-06T18:18:14.722Z,2.05
2023-03-06T18:21:06.575Z,1.95
2023-03-06T18:23:53.857Z,1.85
2023-03-06T18:26:44.135Z,1.88
2023-03-06T18:29:31.354Z,2.53
2023-03-06T18:32:19.045Z,2.25
2023-03-06T18:35:06.662Z,4.40
2023-03-06T18:37:54.132Z,2.58
2023-03-06T18:40:41.832Z,5.70
2023-03-06T18:43:29.264Z,92.63
2023-03-06T18:46:16.412Z,999.90
2023-03-06T18:49:05.144Z,999.90
2023-03-06T18:51:52.393Z,999.90
2023-03-06T18:54:39.757Z,999.90
2023-03-06T18:57:28.726Z,999.90
2023-03-06T19:00:18.008Z,999.90
2023-03-06T19:03:05.200Z,999.90
2023-03-06T19:05:52.470Z,999.90
2023-03-06T19:08:40.781Z,999.90
2023-03-06T19:11:28.100Z,999.90
2023-03-06T19:14:15.581Z,999.90
2023-03-06T19:17:03.097Z,999.90
2023-03-06T19:19:51.404Z,999.90
2023-03-06T19:22:38.635Z,999.90
2023-03-06T19:25:25.880Z,999.90
2023-03-06T19:28:13.174Z,999.90
2023-03-06T19:31:06.912Z,999.90
2023-03-06T19:33:56.642Z,999.90
2023-03-06T19:36:45.747Z,999.90
2023-03-06T19:39:32.992Z,999.90
2023-03-06T19:42:20.366Z,999.90
2023-03-06T19:45:08.300Z,999.90
2023-03-06T19:48:00.652Z,999.90
2023-03-06T19:50:47.812Z,999.90
2023-03-06T19:53:38.790Z,999.90
2023-03-06T19:56:29.049Z,999.90
2023-03-06T19:59:16.833Z,999.90
2023-03-06T20:02:04.195Z,999.90
2023-03-06T20:05:09.316Z,999.90
2023-03-06T20:07:56.649Z,999.90
2023-03-06T20:10:44.227Z,999.90
2023-03-06T20:13:31.686Z,999.90
2023-03-06T20:16:19.266Z,999.90
2023-03-06T20:19:11.289Z,999.90
2023-03-06T20:21:58.508Z,999.90
2023-03-06T20:24:45.903Z,999.90
2023-03-06T20:27:43.851Z,999.90
2023-03-06T20:30:37.797Z,999.90
2023-03-06T20:33:26.713Z,999.90
2023-03-06T20:36:28.996Z,999.90
2023-03-06T20:39:18.525Z,999.90
2023-03-06T20:42:06.134Z,999.90
2023-03-06T20:44:53.456Z,999.90
2023-03-06T20:47:46.797Z,999.90
2023-03-06T20:50:34.032Z,999.90
2023-03-06T20:53:21.279Z,999.90
2023-03-06T20:56:13.782Z,999.90
2023-03-06T20:59:01.962Z,999.90
2023-03-06T21:01:49.263Z,999.90
2023-03-06T21:04:41.168Z,999.90
2023-03-06T21:07:32.768Z,999.90
2023-03-06T21:10:19.934Z,999.90
2023-03-06T21:13:07.696Z,999.90
2023-03-06T21:15:54.974Z,999.90
2023-03-06T21:18:42.342Z,999.90
2023-03-06T21:21:33.076Z,999.90
2023-03-06T21:24:30.907Z,999.90
2023-03-06T21:27:18.323Z,999.90
2023-03-06T21:30:10.652Z,999.90
2023-03-06T21:32:58.160Z,999.90
2023-03-06T21:39:08.542Z,999.90
2023-03-06T21:41:58.102Z,999.90
2023-03-06T21:44:45.938Z,999.90
2023-03-06T21:47:44.447Z,999.90
2023-03-06T21:50:31.632Z,999.90
2023-03-06T21:53:19.266Z,999.90
2023-03-06T21:56:07.009Z,999.90
2023-03-06T21:58:55.345Z,999.90
2023-03-06T22:01:42.793Z,999.90
2023-03-06T22:04:30.328Z,999.90
2023-03-06T22:07:17.817Z,999.90
2023-03-06T22:10:06.734Z,999.90
2023-03-06T22:12:54.106Z,999.90
2023-03-06T22:15:52.192Z,999.90
2023-03-06T22:18:39.890Z,999.90
2023-03-06T22:21:27.201Z,999.90
2023-03-06T22:24:14.744Z,999.90
2023-03-06T22:27:02.012Z,999.90
2023-03-06T22:29:53.296Z,999.90
2023-03-06T22:32:40.540Z,999.90
2023-03-06T22:35:28.138Z,999.90
2023-03-06T22:38:16.052Z,999.90
2023-03-06T22:41:04.545Z,999.90
2023-03-06T22:43:51.870Z,999.90
2023-03-06T22:46:39.014Z,999.90
2023-03-06T22:49:26.272Z,999.90
2023-03-06T22:52:15.196Z,999.90
2023-03-06T22:55:02.586Z,999.90
2023-03-06T22:57:49.773Z,999.90
2023-03-06T23:00:37.540Z,999.90
2023-03-06T23:03:25.177Z,999.90
2023-03-06T23:06:16.246Z,999.90
2023-03-06T23:09:05.928Z,999.90
2023-03-06T23:12:12.054Z,999.90
2023-03-06T23:15:18.105Z,999.90
2023-03-06T23:18:24.163Z,999.90
2023-03-06T23:21:29.980Z,999.90
2023-03-06T23:24:36.797Z,999.90
2023-03-06T23:27:24.065Z,999.90
2023-03-06T23:30:12.191Z,999.90
2023-03-06T23:32:59.394Z,999.90
2023-03-06T23:35:46.753Z,999.90
2023-03-06T23:38:34.486Z,999.90
2023-03-06T23:41:22.576Z,999.90
2023-03-06T23:44:09.797Z,999.90
2023-03-06T23:46:57.054Z,999.90
2023-03-06T23:49:44.301Z,999.90
2023-03-06T23:52:31.468Z,999.90
2023-03-06T23:55:19.076Z,999.90
2023-03-06T23:58:06.296Z,999.90
